Warm Springs, Virginia
Current Conditions -  °F | °C
As of 12:15 AM on Monday 20 Oct 2014 (Local Time) from KHSP Reporting Station
Clear Clear  
Wind Chill:   Ceiling: Unl
Heat Index:   Visibility: 10mi
Dew Point: -4°   Wind: 6mph
Humidity: 56%   Direction: 230°SW
Pressure: 30.09"   Gusts: NA
Location:  38.05°N, 79.79°W
Report Text: KHSP 200415Z AUTO 23005KT 10SM CLR 04/M04 A3009 RMK AO2 T00421040
Loading
Personal Weather Stations






























Interactive Weather Map
Tropical Storm Tracking
New forecast layout! Learn more

10-Day Weather Forecast

Advertisements
Track Severe Weather on mobile